createdAt,value
2024-04-21T00:01:49.673Z,92989.94
2024-04-21T00:04:17.070Z,92994.44
2024-04-21T00:06:44.414Z,92996.66
2024-04-21T00:09:11.844Z,92995.22
2024-04-21T00:11:39.211Z,92996.03
2024-04-21T00:14:06.571Z,92988.84
2024-04-21T00:16:36.694Z,92991.69
2024-04-21T00:19:04.647Z,92990.09
2024-04-21T00:21:34.265Z,92991.84
2024-04-21T00:24:01.615Z,93004.81
2024-04-21T00:26:28.957Z,93000.50
2024-04-21T00:28:56.537Z,93003.16
2024-04-21T00:31:24.008Z,93001.66
2024-04-21T00:33:54.097Z,93002.31
2024-04-21T00:36:22.021Z,93009.19
2024-04-21T00:38:49.549Z,93006.19
2024-04-21T00:41:16.904Z,93005.09
2024-04-21T00:43:44.254Z,93011.00
2024-04-21T00:46:11.702Z,93007.00
2024-04-21T00:48:39.209Z,93009.88
2024-04-21T00:51:09.230Z,93019.94
2024-04-21T00:53:37.707Z,93016.59
2024-04-21T00:56:06.319Z,93009.53
2024-04-21T00:58:34.581Z,93014.31
2024-04-21T01:01:02.230Z,93018.28
2024-04-21T01:03:30.134Z,93011.81
2024-04-21T01:05:57.498Z,93017.50
2024-04-21T01:08:27.577Z,93026.91
2024-04-21T01:10:55.007Z,93016.72
2024-04-21T01:13:22.571Z,93011.31
2024-04-21T01:15:53.889Z,93011.81
2024-04-21T01:18:21.777Z,93013.69
2024-04-21T01:20:49.365Z,93013.19
2024-04-21T01:23:20.474Z,93012.38
2024-04-21T01:25:48.206Z,93004.75
2024-04-21T01:28:15.825Z,93010.03
2024-04-21T01:30:43.238Z,93002.97
2024-04-21T01:33:10.663Z,93003.72
2024-04-21T01:35:38.095Z,93002.50
2024-04-21T01:38:05.576Z,93005.66
2024-04-21T01:40:35.696Z,93004.59
2024-04-21T01:43:03.210Z,92998.69
2024-04-21T01:45:30.606Z,92997.56
2024-04-21T01:47:58.207Z,93001.59
2024-04-21T01:50:25.770Z,92998.59
2024-04-21T01:52:53.106Z,93002.94
2024-04-21T01:55:20.622Z,93001.94
2024-04-21T01:57:53.118Z,93003.69
2024-04-21T02:00:20.593Z,92997.25
2024-04-21T02:02:48.073Z,92998.00
2024-04-21T02:05:15.942Z,93003.72
2024-04-21T02:07:43.296Z,93001.81
2024-04-21T02:10:10.741Z,93000.09
2024-04-21T02:12:38.074Z,92999.75
2024-04-21T02:15:08.822Z,92999.16
2024-04-21T02:17:36.188Z,92991.19
2024-04-21T02:20:03.960Z,92995.81
2024-04-21T02:22:33.175Z,92996.81
2024-04-21T02:25:00.625Z,92994.72
2024-04-21T02:27:28.076Z,92999.94
2024-04-21T02:32:43.113Z,92993.22
2024-04-21T02:35:10.439Z,92992.28
2024-04-21T02:37:37.980Z,92984.44
2024-04-21T02:40:05.992Z,92990.81
2024-04-21T02:42:33.348Z,92990.91
2024-04-21T02:45:00.835Z,92995.84
2024-04-21T02:47:28.209Z,92996.63
2024-04-21T02:49:58.262Z,92995.34
2024-04-21T02:52:25.704Z,92992.13
2024-04-21T02:54:53.132Z,92997.22
2024-04-21T02:57:20.492Z,92989.78
2024-04-21T02:59:47.912Z,92987.56
2024-04-21T03:02:15.238Z,92988.13
2024-04-21T03:04:42.633Z,92986.44
2024-04-21T03:07:12.743Z,92989.28
2024-04-21T03:09:42.114Z,92980.25
2024-04-21T03:12:09.779Z,92979.00
2024-04-21T03:14:37.182Z,92981.06
2024-04-21T03:17:05.053Z,92978.25
2024-04-21T03:19:32.434Z,92974.94
2024-04-21T03:22:00.947Z,92975.28
2024-04-21T03:24:30.925Z,92979.75
2024-04-21T03:26:58.919Z,92978.34
2024-04-21T03:29:26.252Z,92971.34
2024-04-21T03:31:53.505Z,92971.06
2024-04-21T03:34:20.872Z,92976.91
2024-04-21T03:36:49.063Z,92976.09
2024-04-21T03:39:16.584Z,92974.75
2024-04-21T03:41:46.772Z,92975.09
2024-04-21T03:44:14.159Z,92975.78
2024-04-21T03:46:41.478Z,92974.66
2024-04-21T03:49:08.950Z,92970.09
2024-04-21T03:51:36.240Z,92975.19
2024-04-21T03:54:03.739Z,92977.38
2024-04-21T03:56:31.102Z,92969.78
2024-04-21T03:59:01.122Z,92975.69
2024-04-21T04:01:28.760Z,92974.75
2024-04-21T04:03:56.297Z,92978.97
2024-04-21T04:06:25.265Z,92975.69
2024-04-21T04:08:52.742Z,92985.56
2024-04-21T04:11:20.130Z,92991.34
2024-04-21T04:13:47.627Z,92982.53
2024-04-21T04:16:17.750Z,92993.53
2024-04-21T04:18:45.050Z,92993.34
2024-04-21T04:21:12.599Z,92988.72
2024-04-21T04:23:39.871Z,92999.56
2024-04-21T04:26:10.557Z,93000.00
2024-04-21T04:28:39.789Z,93006.41
2024-04-21T04:31:07.484Z,93002.78
2024-04-21T04:33:37.683Z,93002.53
2024-04-21T04:36:05.919Z,92996.91
2024-04-21T04:38:51.873Z,93000.22
2024-04-21T04:41:19.302Z,93011.34
2024-04-21T04:43:46.601Z,93012.81
2024-04-21T04:46:13.979Z,93016.22
2024-04-21T04:48:44.030Z,93013.09
2024-04-21T04:51:11.855Z,93009.69
2024-04-21T04:53:40.899Z,93013.09
2024-04-21T04:56:08.928Z,93014.44
2024-04-21T04:58:36.252Z,93025.31
2024-04-21T05:01:03.900Z,93018.34
2024-04-21T05:03:31.348Z,93014.22
2024-04-21T05:06:01.346Z,93022.38
2024-04-21T05:08:28.768Z,93024.78
2024-04-21T05:10:56.097Z,93027.66
2024-04-21T05:13:23.470Z,93023.53
2024-04-21T05:15:50.988Z,93025.13
2024-04-21T05:18:18.534Z,93024.34
2024-04-21T05:20:46.027Z,93027.22
2024-04-21T05:23:16.132Z,93035.19
2024-04-21T05:25:43.479Z,93031.38
2024-04-21T05:28:10.830Z,93033.59
2024-04-21T05:30:39.005Z,93036.31
2024-04-21T05:33:06.379Z,93038.69
2024-04-21T05:35:33.687Z,93038.50
2024-04-21T05:38:01.233Z,93036.75
2024-04-21T05:40:31.408Z,93040.75
2024-04-21T05:42:58.789Z,93039.63
2024-04-21T05:45:26.183Z,93038.50
2024-04-21T05:47:53.817Z,93042.63
2024-04-21T05:50:21.410Z,93034.72
2024-04-21T05:52:48.817Z,93036.94
2024-04-21T05:55:16.376Z,93041.06
2024-04-21T05:57:46.420Z,93033.69
2024-04-21T06:00:14.050Z,93031.06
2024-04-21T06:02:41.590Z,93036.13
2024-04-21T06:05:08.967Z,93035.53
2024-04-21T06:07:36.487Z,93038.09
2024-04-21T06:10:04.058Z,93026.88
2024-04-21T06:12:32.515Z,93027.75
2024-04-21T06:15:02.538Z,93025.34
2024-04-21T06:17:30.110Z,93019.88
2024-04-21T06:19:57.395Z,93020.81
2024-04-21T06:22:25.212Z,93030.16
2024-04-21T06:24:52.575Z,93032.00
2024-04-21T06:27:20.164Z,93034.22
2024-04-21T06:29:47.690Z,93036.09
2024-04-21T06:32:17.733Z,93041.41
2024-04-21T06:34:45.016Z,93037.50
2024-04-21T06:37:12.423Z,93042.09
2024-04-21T06:39:39.779Z,93049.91
2024-04-21T06:42:07.178Z,93048.41
2024-04-21T06:44:34.750Z,93041.94
2024-04-21T06:47:02.213Z,93048.19
2024-04-21T06:49:38.206Z,93049.69
2024-04-21T06:52:06.226Z,93045.06
2024-04-21T06:54:33.761Z,93044.53
2024-04-21T06:57:01.183Z,93044.72
2024-04-21T06:59:28.947Z,93041.06
2024-04-21T07:01:56.394Z,93040.09
2024-04-21T07:04:24.065Z,93037.50
2024-04-21T07:06:54.092Z,93032.78
2024-04-21T07:09:21.476Z,93030.38
2024-04-21T07:11:48.848Z,93038.75
2024-04-21T07:14:20.837Z,93033.75
2024-04-21T07:16:48.882Z,93033.75
2024-04-21T07:19:16.320Z,93028.88
2024-04-21T07:21:43.769Z,93029.28
2024-04-21T07:24:13.748Z,93022.63
2024-04-21T07:26:41.220Z,93022.41
2024-04-21T07:29:08.626Z,93018.28
2024-04-21T07:31:35.991Z,93021.00
2024-04-21T07:34:03.495Z,93013.28
2024-04-21T07:36:30.903Z,93018.97
2024-04-21T07:38:58.250Z,93014.25
2024-04-21T07:41:29.034Z,93013.53
2024-04-21T07:43:56.319Z,93012.78
2024-04-21T07:46:23.679Z,93006.44
2024-04-21T07:48:51.085Z,93002.81
2024-04-21T07:51:18.375Z,93000.25
2024-04-21T07:53:45.722Z,93005.97
2024-04-21T07:56:13.346Z,93007.16
2024-04-21T07:58:43.427Z,92995.81
2024-04-21T08:01:10.856Z,92997.59
2024-04-21T08:03:38.570Z,92999.94
2024-04-21T08:06:06.098Z,93000.72
2024-04-21T08:08:33.537Z,93007.34
2024-04-21T08:11:04.953Z,93004.66
2024-04-21T08:13:33.164Z,93006.38
2024-04-21T08:16:04.131Z,93000.19
2024-04-21T08:18:31.728Z,93007.28
2024-04-21T08:21:00.276Z,93002.56
2024-04-21T08:23:30.251Z,92999.59
2024-04-21T08:26:01.837Z,93003.53
2024-04-21T08:28:29.426Z,93009.66
2024-04-21T08:30:57.278Z,93010.00
2024-04-21T08:33:28.426Z,93003.31
2024-04-21T08:35:56.983Z,93013.44
2024-04-21T08:38:24.869Z,93015.41
2024-04-21T08:40:52.870Z,93010.25
2024-04-21T08:43:22.912Z,93012.81
2024-04-21T08:45:51.499Z,93015.22
2024-04-21T08:48:19.357Z,93015.47
2024-04-21T08:50:51.118Z,93010.16
2024-04-21T08:53:19.557Z,93014.50
2024-04-21T08:55:48.276Z,93017.00
2024-04-21T08:58:16.891Z,93013.63
2024-04-21T09:00:44.721Z,93015.06
2024-04-21T09:03:12.204Z,93018.47
2024-04-21T09:05:39.746Z,93016.72
2024-04-21T09:08:10.383Z,93021.50
2024-04-21T09:10:37.866Z,93014.13
2024-04-21T09:13:08.048Z,93013.41
2024-04-21T09:15:35.748Z,93010.53
2024-04-21T09:18:03.385Z,93007.31
2024-04-21T09:20:30.960Z,93004.97
2024-04-21T09:22:58.235Z,93004.16
2024-04-21T09:25:28.471Z,93005.09
2024-04-21T09:27:56.667Z,92997.19
2024-04-21T09:30:24.082Z,92996.78
2024-04-21T09:32:52.271Z,93000.59
2024-04-21T09:35:19.578Z,92995.38
2024-04-21T09:37:47.403Z,92994.34
2024-04-21T09:40:16.595Z,92984.19
2024-04-21T09:42:48.991Z,92979.59
2024-04-21T09:45:18.325Z,92976.09
2024-04-21T09:47:46.619Z,92978.50
2024-04-21T09:50:14.185Z,92977.59
2024-04-21T09:52:41.770Z,92969.25
2024-04-21T09:55:09.460Z,92978.59
2024-04-21T09:57:38.333Z,92968.59
2024-04-21T10:00:10.204Z,92974.81
2024-04-21T10:02:39.215Z,92979.63
2024-04-21T10:05:08.191Z,92977.44
2024-04-21T10:07:37.878Z,92972.84
2024-04-21T10:10:09.724Z,92973.66
2024-04-21T10:12:37.997Z,92971.69
2024-04-21T10:15:08.188Z,92972.88
2024-04-21T10:17:35.611Z,92963.53
2024-04-21T10:20:05.485Z,92968.53
2024-04-21T10:22:33.115Z,92964.56
2024-04-21T10:25:00.821Z,92959.19
2024-04-21T10:27:28.199Z,92966.34
2024-04-21T10:29:55.630Z,92970.81
2024-04-21T10:32:29.245Z,92965.47
2024-04-21T10:34:57.906Z,92964.41
2024-04-21T10:37:26.416Z,92960.69
2024-04-21T10:40:00.671Z,92954.03
2024-04-21T10:42:28.067Z,92953.75
2024-04-21T10:44:55.694Z,92953.69
2024-04-21T10:47:23.217Z,92961.44
2024-04-21T10:49:54.443Z,92952.69
2024-04-21T10:52:22.102Z,92952.28
2024-04-21T10:54:49.532Z,92954.34
2024-04-21T10:57:16.945Z,92952.56
2024-04-21T10:59:44.266Z,92944.84
2024-04-21T11:02:11.627Z,92951.19
2024-04-21T11:04:39.494Z,92957.94
2024-04-21T11:07:09.576Z,92961.63
2024-04-21T11:09:36.904Z,92964.91
2024-04-21T11:12:04.900Z,92963.06
2024-04-21T11:14:32.197Z,92961.47
2024-04-21T11:16:59.754Z,92964.78
2024-04-21T11:19:27.257Z,92966.31
2024-04-21T11:21:54.674Z,92965.22
2024-04-21T11:24:24.859Z,92963.78
2024-04-21T11:26:52.310Z,92959.66
2024-04-21T11:29:19.608Z,92959.28
2024-04-21T11:31:47.166Z,92950.22
2024-04-21T11:34:14.793Z,92943.88
2024-04-21T11:36:42.400Z,92942.53
2024-04-21T11:39:09.961Z,92940.19
2024-04-21T11:41:40.210Z,92937.25
2024-04-21T11:44:09.839Z,92934.31
2024-04-21T11:46:37.201Z,92932.53
2024-04-21T11:49:04.634Z,92933.53
2024-04-21T11:51:32.110Z,92936.91
2024-04-21T11:53:59.414Z,92937.63
2024-04-21T11:56:26.827Z,92935.09
2024-04-21T11:58:56.944Z,92935.63
2024-04-21T12:01:32.421Z,92929.28
2024-04-21T12:04:07.751Z,92921.09
2024-04-21T12:06:35.101Z,92924.28
2024-04-21T12:09:06.985Z,92919.59
2024-04-21T12:11:34.430Z,92917.41
2024-04-21T12:14:34.079Z,92920.50
2024-04-21T12:17:01.845Z,92912.78
2024-04-21T12:19:29.771Z,92914.94
2024-04-21T12:21:57.218Z,92915.53
2024-04-21T12:24:24.557Z,92907.19
2024-04-21T12:26:51.928Z,92907.63
2024-04-21T12:29:22.838Z,92901.97
2024-04-21T12:31:50.904Z,92889.34
2024-04-21T12:34:18.571Z,92885.09
2024-04-21T12:36:45.918Z,92878.03
2024-04-21T12:39:13.259Z,92872.13
2024-04-21T12:41:40.957Z,92859.31
2024-04-21T12:44:08.292Z,92854.75
2024-04-21T12:46:38.346Z,92855.59
2024-04-21T12:49:06.002Z,92838.81
2024-04-21T12:51:33.366Z,92834.41
2024-04-21T12:54:00.775Z,92844.44
2024-04-21T12:56:28.104Z,92844.38
2024-04-21T12:58:55.566Z,92844.03
2024-04-21T13:01:22.943Z,92840.75
2024-04-21T13:03:53.077Z,92839.25
2024-04-21T13:06:20.368Z,92841.28
2024-04-21T13:08:47.664Z,92837.00
2024-04-21T13:11:15.208Z,92837.41
2024-04-21T13:13:42.677Z,92834.06
2024-04-21T13:16:10.020Z,92820.97
2024-04-21T13:18:37.504Z,92830.31
2024-04-21T13:21:07.665Z,92834.66
2024-04-21T13:23:35.062Z,92834.28
2024-04-21T13:26:02.450Z,92835.88
2024-04-21T13:28:32.754Z,92829.16
2024-04-21T13:31:00.872Z,92826.19
2024-04-21T13:33:28.427Z,92837.63
2024-04-21T13:35:56.027Z,92837.47
2024-04-21T13:38:26.144Z,92829.91
2024-04-21T13:40:57.622Z,92828.13
2024-04-21T13:43:25.166Z,92827.06
2024-04-21T13:45:52.586Z,92824.78
2024-04-21T13:48:20.093Z,92823.97
2024-04-21T13:50:47.549Z,92829.75
2024-04-21T13:53:14.973Z,92834.91
2024-04-21T13:55:45.373Z,92833.94
2024-04-21T13:58:12.716Z,92833.13
2024-04-21T14:00:40.195Z,92831.31
2024-04-21T14:03:07.534Z,92831.06
2024-04-21T14:05:34.837Z,92818.38
2024-04-21T14:08:02.268Z,92821.28
2024-04-21T14:10:29.655Z,92819.47
2024-04-21T14:12:59.732Z,92811.28
2024-04-21T14:15:27.164Z,92821.16
2024-04-21T14:17:54.567Z,92826.25
2024-04-21T14:20:21.899Z,92831.97
2024-04-21T14:22:49.250Z,92829.56
2024-04-21T14:25:16.828Z,92823.38
2024-04-21T14:27:44.250Z,92822.00
2024-04-21T14:30:14.584Z,92826.09
2024-04-21T14:32:41.974Z,92814.38
2024-04-21T14:35:09.475Z,92815.31
2024-04-21T14:37:36.941Z,92824.56
2024-04-21T14:40:04.736Z,92826.28
2024-04-21T14:42:32.093Z,92828.72
2024-04-21T14:45:05.103Z,92824.84
2024-04-21T14:47:37.854Z,92836.22
2024-04-21T14:50:06.001Z,92841.31
2024-04-21T14:52:38.069Z,92844.44
2024-04-21T14:55:07.938Z,92847.63
2024-04-21T14:57:35.552Z,92853.75
2024-04-21T15:00:03.128Z,92856.28
2024-04-21T15:02:30.799Z,92857.53
2024-04-21T15:05:01.016Z,92863.94
2024-04-21T15:07:28.515Z,92861.09
2024-04-21T15:09:55.940Z,92861.63
2024-04-21T15:12:23.338Z,92859.06
2024-04-21T15:14:50.940Z,92861.00
2024-04-21T15:17:18.372Z,92864.44
2024-04-21T15:19:46.039Z,92869.84
2024-04-21T15:22:16.240Z,92867.22
2024-04-21T15:24:43.790Z,92874.97
2024-04-21T15:27:11.116Z,92870.31
2024-04-21T15:29:38.383Z,92867.19
2024-04-21T15:32:06.347Z,92871.53
2024-04-21T15:34:34.120Z,92871.00
2024-04-21T15:37:04.350Z,92867.63
2024-04-21T15:39:36.307Z,92872.78
2024-04-21T15:42:04.367Z,92868.59
2024-04-21T15:44:31.800Z,92868.97
2024-04-21T15:46:59.134Z,92868.28
2024-04-21T15:49:26.559Z,92856.31
2024-04-21T15:51:53.991Z,92866.91
2024-04-21T15:54:21.346Z,92866.16
2024-04-21T15:56:51.435Z,92870.75
2024-04-21T15:59:18.717Z,92871.97
2024-04-21T16:01:46.054Z,92872.78
2024-04-21T16:04:13.698Z,92880.84
2024-04-21T16:06:41.602Z,92883.16
2024-04-21T16:09:09.355Z,92882.03
2024-04-21T16:11:36.693Z,92887.31
2024-04-21T16:14:06.767Z,92891.84
2024-04-21T16:16:34.364Z,92895.72
2024-04-21T16:19:02.048Z,92893.50
2024-04-21T16:21:29.412Z,92897.50
2024-04-21T16:23:56.726Z,92904.03
2024-04-21T16:26:24.105Z,92906.09
2024-04-21T16:28:51.560Z,92900.78
2024-04-21T16:31:21.850Z,92911.84
2024-04-21T16:33:50.908Z,92914.75
2024-04-21T16:36:23.381Z,92916.06
2024-04-21T16:38:51.494Z,92919.94
2024-04-21T16:41:19.431Z,92920.78
2024-04-21T16:43:48.056Z,92924.06
2024-04-21T16:46:24.071Z,92925.47
2024-04-21T16:48:53.479Z,92924.22
2024-04-21T16:51:21.432Z,92929.72
2024-04-21T16:53:49.382Z,92927.69
2024-04-21T16:56:17.340Z,92927.59
2024-04-21T16:58:45.276Z,92926.97
2024-04-21T17:01:16.104Z,92932.44
2024-04-21T17:03:47.023Z,92933.56
2024-04-21T17:06:19.605Z,92939.19
2024-04-21T17:08:47.567Z,92942.91
2024-04-21T17:11:15.663Z,92947.25
2024-04-21T17:13:44.647Z,92943.00
2024-04-21T17:16:12.287Z,92956.97
2024-04-21T17:18:40.876Z,92951.03
2024-04-21T17:21:11.862Z,92957.94
2024-04-21T17:23:39.220Z,92929.78
2024-04-21T17:26:06.582Z,92950.16
2024-04-21T17:28:34.046Z,92954.97
2024-04-21T17:31:01.765Z,92962.03
2024-04-21T17:33:29.263Z,92941.94
2024-04-21T17:35:56.820Z,92943.22
2024-04-21T17:38:26.920Z,92962.13
2024-04-21T17:40:55.025Z,92980.53
2024-04-21T17:43:22.415Z,92974.44
2024-04-21T17:45:49.758Z,92981.16
2024-04-21T17:48:17.606Z,92976.03
2024-04-21T17:50:45.359Z,92991.41
2024-04-21T17:53:12.764Z,93008.00
2024-04-21T17:55:42.966Z,93005.09
2024-04-21T17:58:10.398Z,93006.53
2024-04-21T18:00:39.204Z,92996.78
2024-04-21T18:03:06.649Z,92998.03
2024-04-21T18:05:36.602Z,93020.72
2024-04-21T18:08:04.419Z,93023.56
2024-04-21T18:10:31.845Z,93030.69
2024-04-21T18:13:01.917Z,93042.31
2024-04-21T18:15:29.504Z,93052.41
2024-04-21T18:17:57.938Z,93051.75
2024-04-21T18:20:25.278Z,93051.03
2024-04-21T18:22:53.481Z,93062.09
2024-04-21T18:25:21.268Z,93068.41
2024-04-21T18:27:48.585Z,93062.78
2024-04-21T18:30:18.742Z,93065.00
2024-04-21T18:32:47.579Z,93063.44
2024-04-21T18:35:15.105Z,93065.50
2024-04-21T18:37:42.840Z,93066.66
2024-04-21T18:40:10.567Z,93069.56
2024-04-21T18:42:37.878Z,93066.69
2024-04-21T18:45:06.052Z,93073.41
2024-04-21T18:47:36.132Z,93070.53
2024-04-21T18:50:03.729Z,93074.69
2024-04-21T18:52:33.483Z,93077.09
2024-04-21T18:55:02.279Z,93085.38
2024-04-21T18:57:29.678Z,93097.13
2024-04-21T18:59:57.143Z,93094.09
2024-04-21T19:02:24.484Z,93106.53
2024-04-21T19:04:54.539Z,93116.66
2024-04-21T19:07:21.906Z,93116.78
2024-04-21T19:09:49.942Z,93123.72
2024-04-21T19:12:17.879Z,93119.50
2024-04-21T19:14:45.914Z,93117.34
2024-04-21T19:17:13.943Z,93124.13
2024-04-21T19:19:41.849Z,93129.97
2024-04-21T19:22:12.563Z,93121.91
2024-04-21T19:24:39.999Z,93124.41
2024-04-21T19:27:07.353Z,93130.84
2024-04-21T19:29:36.036Z,93134.16
2024-04-21T19:32:03.225Z,93138.09
2024-04-21T19:34:30.616Z,93139.94
2024-04-21T19:36:57.999Z,93137.97
2024-04-21T19:39:28.010Z,93141.31
2024-04-21T19:41:55.379Z,93145.31
2024-04-21T19:44:22.710Z,93149.03
2024-04-21T19:46:49.990Z,93148.09
2024-04-21T19:49:17.473Z,93153.84
2024-04-21T19:51:44.806Z,93149.47
2024-04-21T19:54:16.670Z,93139.91
2024-04-21T19:56:56.174Z,93154.13
2024-04-21T19:59:24.033Z,93158.94
2024-04-21T20:01:51.491Z,93150.78
2024-04-21T20:04:19.150Z,93158.41
2024-04-21T20:06:46.685Z,93166.06
2024-04-21T20:09:14.109Z,93162.59
2024-04-21T20:11:41.654Z,93168.50
2024-04-21T20:14:11.654Z,93170.91
2024-04-21T20:16:57.798Z,93176.91
2024-04-21T20:19:25.307Z,93176.03
2024-04-21T20:21:52.596Z,93175.44
2024-04-21T20:24:19.950Z,93175.00
2024-04-21T20:26:50.295Z,93176.56
2024-04-21T20:29:21.636Z,93181.53
2024-04-21T20:31:49.750Z,93183.16
2024-04-21T20:34:17.123Z,93179.13
2024-04-21T20:36:44.831Z,93172.44
2024-04-21T20:39:12.256Z,93181.97
2024-04-21T20:41:42.226Z,93186.94
2024-04-21T20:44:09.578Z,93190.00
2024-04-21T20:46:39.709Z,93187.16
2024-04-21T20:49:07.338Z,93194.53
2024-04-21T20:51:34.927Z,93195.31
2024-04-21T20:54:02.339Z,93194.81
2024-04-21T20:56:29.632Z,93192.09
2024-04-21T20:58:58.314Z,93189.25
2024-04-21T21:01:25.983Z,93176.50
2024-04-21T21:03:56.044Z,93180.91
2024-04-21T21:06:23.646Z,93195.69
2024-04-21T21:08:51.046Z,93200.44
2024-04-21T21:11:18.491Z,93195.94
2024-04-21T21:13:46.055Z,93204.16
2024-04-21T21:16:13.744Z,93199.88
2024-04-21T21:18:41.185Z,93206.84
2024-04-21T21:21:11.319Z,93212.09
2024-04-21T21:23:38.866Z,93220.03
2024-04-21T21:26:06.260Z,93222.03
2024-04-21T21:28:33.964Z,93220.53
2024-04-21T21:31:02.785Z,93214.94
2024-04-21T21:33:30.313Z,93227.81
2024-04-21T21:35:57.728Z,93225.00
2024-04-21T21:38:30.078Z,93222.16
2024-04-21T21:40:57.853Z,93219.91
2024-04-21T21:43:25.811Z,93222.81
2024-04-21T21:45:53.429Z,93229.38
2024-04-21T21:48:21.014Z,93237.53
2024-04-21T21:50:48.385Z,93234.13
2024-04-21T21:53:15.837Z,93238.06
2024-04-21T21:55:46.098Z,93231.84
2024-04-21T21:58:13.516Z,93233.59
2024-04-21T22:00:41.089Z,93241.91
2024-04-21T22:03:09.881Z,93245.78
2024-04-21T22:05:37.578Z,93243.38
2024-04-21T22:08:05.540Z,93258.53
2024-04-21T22:10:32.948Z,93252.63
2024-04-21T22:13:03.099Z,93252.63
2024-04-21T22:15:30.520Z,93257.88
2024-04-21T22:17:58.518Z,93252.00
2024-04-21T22:20:26.108Z,93252.38
2024-04-21T22:22:53.576Z,93259.41
2024-04-21T22:25:21.068Z,93255.78
2024-04-21T22:27:50.119Z,93258.03
2024-04-21T22:30:20.211Z,93264.00
2024-04-21T22:32:48.286Z,93261.25
2024-04-21T22:35:16.004Z,93272.53
2024-04-21T22:37:43.530Z,93270.44
2024-04-21T22:40:11.343Z,93278.22
2024-04-21T22:42:41.778Z,93284.31
2024-04-21T22:45:10.629Z,93274.72
2024-04-21T22:47:40.823Z,93286.78
2024-04-21T22:50:08.551Z,93276.41
2024-04-21T22:52:36.209Z,93278.38
2024-04-21T22:55:04.121Z,93277.22
2024-04-21T22:57:31.751Z,93290.63
2024-04-21T22:59:59.195Z,93287.34
2024-04-21T23:02:26.485Z,93285.44
2024-04-21T23:04:56.607Z,93283.41
2024-04-21T23:07:24.038Z,93294.41
2024-04-21T23:09:51.416Z,93300.94
2024-04-21T23:12:18.831Z,93291.78
2024-04-21T23:14:46.210Z,93297.22
2024-04-21T23:17:13.640Z,93294.72
2024-04-21T23:19:41.274Z,93296.69
2024-04-21T23:22:11.675Z,93292.97
2024-04-21T23:24:39.134Z,93304.72
2024-04-21T23:27:06.689Z,93304.84
2024-04-21T23:29:34.138Z,93312.94
2024-04-21T23:32:01.487Z,93323.06
2024-04-21T23:34:29.054Z,93324.16
2024-04-21T23:36:56.308Z,93325.63
2024-04-21T23:39:26.431Z,93325.63
2024-04-21T23:41:53.881Z,93329.25
2024-04-21T23:44:21.399Z,93333.41
2024-04-21T23:46:48.836Z,93337.53
2024-04-21T23:49:17.277Z,93342.91
2024-04-21T23:51:45.162Z,93337.66
2024-04-21T23:54:12.542Z,93334.75
2024-04-21T23:56:42.719Z,93339.44
2024-04-21T23:59:10.106Z,93339.16
